Time;durP1;ratioP1;P1;durP2;ratioP2;P2;SDS_P1;SDS_P2;PMS_P1;PMS_P2;Temp;Humidity;BMP_temperature;BMP_pressure;BME280_temperature;BME280_humidity;BME280_pressure;Samples;Min_cycle;Max_cycle;Signal;HPM_P1;HPM_P2
2023/07/20 00:00:25;;;;;;;2.15;1.25;;;;;;;;;;5073658;28;20067;-80
2023/07/20 00:02:51;;;;;;;1.27;1.10;;;;;;;;;;5072559;28;20039;-80
2023/07/20 00:05:21;;;;;;;1.38;1.17;;;;;;;;;;5072359;28;20020;-80
2023/07/20 00:07:46;;;;;;;1.13;1.08;;;;;;;;;;5073739;28;20028;-80
2023/07/20 00:10:11;;;;;;;1.10;1.00;;;;;;;;;;5073804;28;20032;-80
2023/07/20 00:12:37;;;;;;;3.90;1.42;;;;;;;;;;5072562;28;20025;-80
2023/07/20 00:15:02;;;;;;;2.40;1.30;;;;;;;;;;5073305;28;20035;-80
2023/07/20 00:17:28;;;;;;;1.52;1.42;;;;;;;;;;5073286;28;20489;-80
2023/07/20 00:19:53;;;;;;;2.72;1.25;;;;;;;;;;5055278;28;20024;-80
2023/07/20 00:22:18;;;;;;;1.48;1.20;;;;;;;;;;5073389;28;20118;-79
2023/07/20 00:24:44;;;;;;;2.05;1.20;;;;;;;;;;5073582;28;20029;-79
2023/07/20 00:27:09;;;;;;;1.30;1.00;;;;;;;;;;5072061;28;20233;-79
2023/07/20 00:29:35;;;;;;;2.67;1.20;;;;;;;;;;5072147;28;20032;-79
2023/07/20 00:32:00;;;;;;;1.00;1.00;;;;;;;;;;5073178;28;20105;-79
2023/07/20 00:34:26;;;;;;;4.53;1.40;;;;;;;;;;5073163;28;20032;-79
2023/07/20 00:36:51;;;;;;;1.20;1.10;;;;;;;;;;5071969;28;20128;-79
2023/07/20 00:39:16;;;;;;;1.08;0.98;;;;;;;;;;5073198;28;20100;-79
2023/07/20 00:41:42;;;;;;;1.85;1.08;;;;;;;;;;5073120;28;20436;-79
2023/07/20 00:44:07;;;;;;;1.98;1.05;;;;;;;;;;5073330;28;20103;-79
2023/07/20 00:46:33;;;;;;;1.48;1.02;;;;;;;;;;5071840;28;20028;-80
2023/07/20 00:48:58;;;;;;;1.27;1.10;;;;;;;;;;5071739;28;20479;-79
2023/07/20 00:51:25;;;;;;;1.88;0.90;;;;;;;;;;5073483;28;20028;-79
2023/07/20 00:53:50;;;;;;;2.17;1.05;;;;;;;;;;5071759;28;20107;-80
2023/07/20 00:56:16;;;;;;;0.90;0.90;;;;;;;;;;5071759;28;20123;-80
2023/07/20 00:58:42;;;;;;;0.77;0.77;;;;;;;;;;5071653;28;20157;-80
2023/07/20 01:01:07;;;;;;;1.35;0.90;;;;;;;;;;5072942;28;20036;-80
2023/07/20 01:03:33;;;;;;;1.83;1.20;;;;;;;;;;5055030;28;20028;-79
2023/07/20 01:06:29;;;;;;;1.00;0.90;;;;;;;;;;5072833;28;20028;-79
2023/07/20 01:09:18;;;;;;;0.73;0.73;;;;;;;;;;5071971;28;20372;-79
2023/07/20 01:12:05;;;;;;;0.98;0.90;;;;;;;;;;5071974;28;20025;-79
2023/07/20 01:14:32;;;;;;;0.77;0.77;;;;;;;;;;5054712;28;20024;-79
2023/07/20 01:16:57;;;;;;;0.82;0.73;;;;;;;;;;5071586;28;20029;-80
2023/07/20 01:19:23;;;;;;;0.80;0.80;;;;;;;;;;5054785;28;20039;-80
2023/07/20 01:21:55;;;;;;;0.80;0.80;;;;;;;;;;5073006;28;20032;-79
2023/07/20 01:25:12;;;;;;;0.90;0.65;;;;;;;;;;5071842;28;20020;-79
2023/07/20 01:27:58;;;;;;;1.00;0.90;;;;;;;;;;5030458;28;20119;-79
2023/07/20 01:30:48;;;;;;;0.80;0.80;;;;;;;;;;5072925;28;20025;-80
2023/07/20 01:33:15;;;;;;;1.30;0.85;;;;;;;;;;5074699;28;20024;-80
2023/07/20 01:35:41;;;;;;;0.90;0.90;;;;;;;;;;5075360;28;20029;-80
2023/07/20 01:38:08;;;;;;;0.80;0.80;;;;;;;;;;5075383;28;20021;-80
2023/07/20 01:40:34;;;;;;;0.70;0.70;;;;;;;;;;5058330;28;20028;-80
2023/07/20 01:42:59;;;;;;;0.90;0.73;;;;;;;;;;5075068;28;20105;-80
2023/07/20 01:45:25;;;;;;;1.13;0.90;;;;;;;;;;5074933;28;20056;-80
2023/07/20 01:47:50;;;;;;;0.80;0.80;;;;;;;;;;5076168;28;20036;-80
2023/07/20 01:50:16;;;;;;;0.80;0.77;;;;;;;;;;5076550;28;20036;-80
2023/07/20 01:52:41;;;;;;;2.15;0.80;;;;;;;;;;5076164;28;20036;-80
2023/07/20 01:55:07;;;;;;;1.02;0.80;;;;;;;;;;5076165;28;20056;-80
2023/07/20 01:57:33;;;;;;;1.20;0.68;;;;;;;;;;5075844;28;20392;-79
2023/07/20 01:59:58;;;;;;;0.70;0.70;;;;;;;;;;5076239;28;20086;-79
2023/07/20 02:02:26;;;;;;;1.30;0.75;;;;;;;;;;5075890;28;20024;-80
2023/07/20 02:04:52;;;;;;;0.52;0.52;;;;;;;;;;5074746;28;20025;-80
2023/07/20 02:07:17;;;;;;;0.70;0.70;;;;;;;;;;5076054;28;20047;-80
2023/07/20 02:09:43;;;;;;;0.75;0.70;;;;;;;;;;5075784;28;20059;-80
2023/07/20 02:12:08;;;;;;;0.80;0.80;;;;;;;;;;5074388;28;20494;-80
2023/07/20 02:14:34;;;;;;;0.70;0.70;;;;;;;;;;5076042;28;20033;-80
2023/07/20 02:17:00;;;;;;;1.48;0.70;;;;;;;;;;5075715;28;20039;-80
2023/07/20 02:19:26;;;;;;;0.55;0.55;;;;;;;;;;5076005;28;20032;-80
2023/07/20 02:21:51;;;;;;;0.98;0.63;;;;;;;;;;5074357;28;20031;-80
2023/07/20 02:24:17;;;;;;;0.75;0.75;;;;;;;;;;5074855;28;20105;-79
2023/07/20 02:26:43;;;;;;;0.93;0.77;;;;;;;;;;5075702;28;20035;-80
2023/07/20 02:29:11;;;;;;;0.80;0.80;;;;;;;;;;5057502;28;20035;-80
2023/07/20 02:31:37;;;;;;;0.90;0.80;;;;;;;;;;5074168;28;20028;-79
2023/07/20 02:34:03;;;;;;;1.27;0.88;;;;;;;;;;5075201;28;20051;-79
2023/07/20 02:36:28;;;;;;;2.03;0.70;;;;;;;;;;5074075;28;20471;-79
2023/07/20 02:38:54;;;;;;;1.20;0.82;;;;;;;;;;5057274;28;20024;-79
2023/07/20 02:41:20;;;;;;;0.70;0.70;;;;;;;;;;5075190;28;20028;-79
2023/07/20 02:43:45;;;;;;;0.95;0.60;;;;;;;;;;5072704;28;20032;-79
2023/07/20 02:46:10;;;;;;;0.90;0.70;;;;;;;;;;5073776;28;20403;-80
2023/07/20 02:48:36;;;;;;;0.80;0.80;;;;;;;;;;5074387;28;20394;-80
2023/07/20 02:51:01;;;;;;;0.95;0.85;;;;;;;;;;5075361;28;20509;-80
2023/07/20 02:53:26;;;;;;;1.23;0.68;;;;;;;;;;5075008;28;20469;-80
2023/07/20 02:55:52;;;;;;;0.70;0.70;;;;;;;;;;5074814;28;20029;-80
2023/07/20 02:58:17;;;;;;;1.02;0.70;;;;;;;;;;5074842;28;20048;-80
2023/07/20 03:00:43;;;;;;;0.73;0.73;;;;;;;;;;5073831;28;20463;-80
2023/07/20 03:03:09;;;;;;;0.70;0.70;;;;;;;;;;5074969;28;20020;-80
2023/07/20 03:05:35;;;;;;;2.58;0.90;;;;;;;;;;5074722;28;20028;-80
2023/07/20 03:08:02;;;;;;;0.60;0.60;;;;;;;;;;5073376;28;20075;-80
2023/07/20 03:10:28;;;;;;;0.70;0.70;;;;;;;;;;5074872;28;20032;-79
2023/07/20 03:12:53;;;;;;;0.77;0.73;;;;;;;;;;5075094;28;20112;-79
2023/07/20 03:15:19;;;;;;;0.93;0.80;;;;;;;;;;5073384;28;20028;-80
2023/07/20 03:17:44;;;;;;;1.33;0.90;;;;;;;;;;5074386;28;20052;-80
2023/07/20 03:20:10;;;;;;;0.65;0.65;;;;;;;;;;5073197;28;20033;-80
2023/07/20 03:22:36;;;;;;;0.93;0.88;;;;;;;;;;5073224;28;20441;-80
2023/07/20 03:25:01;;;;;;;0.68;0.60;;;;;;;;;;5074529;28;20025;-80
2023/07/20 03:27:28;;;;;;;0.60;0.60;;;;;;;;;;5074453;28;20040;-79
2023/07/20 03:29:54;;;;;;;0.73;0.73;;;;;;;;;;5072961;28;20395;-80
2023/07/20 03:32:19;;;;;;;0.85;0.73;;;;;;;;;;5074377;28;20029;-80
2023/07/20 03:34:45;;;;;;;0.70;0.70;;;;;;;;;;5074228;28;20032;-79
2023/07/20 03:37:11;;;;;;;0.50;0.47;;;;;;;;;;5074264;28;20032;-80
2023/07/20 03:39:36;;;;;;;0.90;0.63;;;;;;;;;;5074190;28;20032;-80
2023/07/20 03:42:01;;;;;;;0.80;0.80;;;;;;;;;;5072534;28;20169;-80
2023/07/20 03:44:27;;;;;;;0.77;0.70;;;;;;;;;;5073853;28;20028;-80
2023/07/20 03:46:52;;;;;;;0.60;0.60;;;;;;;;;;5072253;28;20033;-80
2023/07/20 03:49:17;;;;;;;0.70;0.70;;;;;;;;;;5073500;28;20082;-80
2023/07/20 03:51:43;;;;;;;0.70;0.70;;;;;;;;;;5072364;28;20078;-80
2023/07/20 03:54:09;;;;;;;0.70;0.70;;;;;;;;;;5073100;28;20032;-80
2023/07/20 03:56:35;;;;;;;0.70;0.70;;;;;;;;;;5072649;28;20029;-80
2023/07/20 03:59:01;;;;;;;0.70;0.70;;;;;;;;;;5072310;28;20060;-80
2023/07/20 04:01:26;;;;;;;0.70;0.70;;;;;;;;;;5072514;28;20025;-79
2023/07/20 04:03:51;;;;;;;0.70;0.70;;;;;;;;;;5072151;28;20507;-80
2023/07/20 04:06:17;;;;;;;2.25;0.70;;;;;;;;;;5072487;28;20077;-80
2023/07/20 04:08:43;;;;;;;0.70;0.70;;;;;;;;;;5073357;28;20039;-80
2023/07/20 04:11:08;;;;;;;1.02;0.68;;;;;;;;;;5072351;28;20420;-80
2023/07/20 04:13:34;;;;;;;3.13;0.80;;;;;;;;;;5073670;28;20028;-79
2023/07/20 04:16:00;;;;;;;1.63;0.75;;;;;;;;;;5073257;28;20032;-80
2023/07/20 04:18:25;;;;;;;0.80;0.80;;;;;;;;;;5072191;28;20085;-79
2023/07/20 04:20:50;;;;;;;0.50;0.50;;;;;;;;;;5071931;28;20143;-80
2023/07/20 04:23:16;;;;;;;0.55;0.55;;;;;;;;;;5072355;28;20044;-79
2023/07/20 04:25:41;;;;;;;1.17;0.70;;;;;;;;;;5072045;28;20021;-79
2023/07/20 04:28:10;;;;;;;1.27;0.73;;;;;;;;;;5071703;28;20062;-80
2023/07/20 04:30:36;;;;;;;0.85;0.70;;;;;;;;;;5072178;28;20380;-83
2023/07/20 04:33:03;;;;;;;0.60;0.60;;;;;;;;;;5071494;28;20027;-80
2023/07/20 04:35:51;;;;;;;0.77;0.68;;;;;;;;;;5072565;28;20070;-78
2023/07/20 04:38:17;;;;;;;0.52;0.52;;;;;;;;;;5071698;28;20502;-78
2023/07/20 04:40:48;;;;;;;0.50;0.50;;;;;;;;;;5055409;28;20103;-79
2023/07/20 04:43:14;;;;;;;1.00;0.80;;;;;;;;;;5072084;28;20369;-78
2023/07/20 04:45:40;;;;;;;1.80;0.90;;;;;;;;;;5071970;28;20063;-78
2023/07/20 04:48:08;;;;;;;1.73;1.17;;;;;;;;;;5055290;28;20055;-78
2023/07/20 04:50:34;;;;;;;2.85;1.30;;;;;;;;;;5071911;28;20028;-78
2023/07/20 04:53:00;;;;;;;4.18;1.30;;;;;;;;;;5071993;28;20038;-78
2023/07/20 04:55:25;;;;;;;2.50;1.45;;;;;;;;;;5055870;28;20107;-76
2023/07/20 04:57:51;;;;;;;2.75;1.40;;;;;;;;;;5074356;28;20446;-78
2023/07/20 05:00:17;;;;;;;5.57;1.50;;;;;;;;;;5074407;28;20097;-77
2023/07/20 05:02:42;;;;;;;8.05;1.52;;;;;;;;;;5075837;28;20467;-77
2023/07/20 05:05:08;;;;;;;3.65;1.50;;;;;;;;;;5071762;28;20036;-78
2023/07/20 05:07:34;;;;;;;4.22;1.90;;;;;;;;;;5057613;28;20028;-78
2023/07/20 05:09:59;;;;;;;7.15;2.20;;;;;;;;;;5076966;28;20028;-78
2023/07/20 05:12:25;;;;;;;8.52;2.63;;;;;;;;;;5077112;28;20032;-78
2023/07/20 05:14:50;;;;;;;10.93;2.70;;;;;;;;;;5076745;28;20029;-78
2023/07/20 05:17:15;;;;;;;9.05;2.42;;;;;;;;;;5076949;28;20028;-77
2023/07/20 05:19:41;;;;;;;8.50;2.60;;;;;;;;;;5076736;28;20029;-78
2023/07/20 05:22:06;;;;;;;9.00;2.42;;;;;;;;;;5075468;28;20029;-78
2023/07/20 05:24:31;;;;;;;9.68;3.00;;;;;;;;;;5076855;28;20031;-78
2023/07/20 05:26:58;;;;;;;10.05;2.53;;;;;;;;;;5076575;28;20093;-78
2023/07/20 05:29:23;;;;;;;11.27;2.75;;;;;;;;;;5075392;28;20121;-78
2023/07/20 05:31:49;;;;;;;10.93;3.15;;;;;;;;;;5076387;28;20113;-78
2023/07/20 05:34:14;;;;;;;8.80;2.55;;;;;;;;;;5075109;28;20039;-78
2023/07/20 05:36:40;;;;;;;5.25;2.22;;;;;;;;;;5076274;28;20021;-77
2023/07/20 05:39:05;;;;;;;6.25;2.28;;;;;;;;;;5076587;28;20035;-77
2023/07/20 05:41:30;;;;;;;7.20;2.08;;;;;;;;;;5076207;28;20138;-78
2023/07/20 05:43:56;;;;;;;6.13;2.00;;;;;;;;;;5076519;28;20081;-75
2023/07/20 05:46:21;;;;;;;7.72;2.33;;;;;;;;;;5076464;28;20051;-78
2023/07/20 05:48:46;;;;;;;4.68;1.90;;;;;;;;;;5076658;28;20108;-78
2023/07/20 05:51:12;;;;;;;4.47;1.70;;;;;;;;;;5076937;28;20032;-78
2023/07/20 05:53:38;;;;;;;4.03;1.70;;;;;;;;;;5074795;28;20034;-76
2023/07/20 05:56:04;;;;;;;4.57;1.75;;;;;;;;;;5091588;28;20063;-76
2023/07/20 05:58:29;;;;;;;6.25;1.70;;;;;;;;;;5075709;28;20080;-76
2023/07/20 06:00:54;;;;;;;4.78;1.75;;;;;;;;;;5075911;28;20428;-76
2023/07/20 06:03:22;;;;;;;3.10;1.70;;;;;;;;;;5075847;28;20027;-79
2023/07/20 06:05:47;;;;;;;4.20;1.45;;;;;;;;;;5074609;28;20053;-76
2023/07/20 06:08:12;;;;;;;6.60;1.98;;;;;;;;;;5074883;28;20475;-76
2023/07/20 06:10:38;;;;;;;2.47;1.48;;;;;;;;;;5076288;28;20032;-76
2023/07/20 06:13:04;;;;;;;5.00;1.60;;;;;;;;;;5075668;28;20515;-76
2023/07/20 06:15:35;;;;;;;4.38;1.60;;;;;;;;;;5074337;28;20395;-78
2023/07/20 06:18:01;;;;;;;3.47;1.67;;;;;;;;;;5074098;28;20036;-77
2023/07/20 06:20:26;;;;;;;4.25;1.67;;;;;;;;;;5058071;28;20028;-77
2023/07/20 06:22:51;;;;;;;5.65;1.23;;;;;;;;;;5074713;28;20028;-77
2023/07/20 06:25:17;;;;;;;5.10;1.38;;;;;;;;;;5074924;28;20116;-77
2023/07/20 06:27:43;;;;;;;4.47;1.35;;;;;;;;;;5074675;28;20029;-78
2023/07/20 06:30:08;;;;;;;5.95;1.27;;;;;;;;;;5073978;28;20028;-77
2023/07/20 06:32:34;;;;;;;4.38;1.30;;;;;;;;;;5075247;28;20487;-77
2023/07/20 06:34:59;;;;;;;2.50;1.00;;;;;;;;;;5074244;28;20029;-77
2023/07/20 06:37:25;;;;;;;2.20;1.00;;;;;;;;;;5074161;28;20368;-77
2023/07/20 06:39:50;;;;;;;2.53;1.27;;;;;;;;;;5073899;28;20029;-77
2023/07/20 06:42:15;;;;;;;2.30;0.90;;;;;;;;;;5074737;28;20064;-77
2023/07/20 06:44:41;;;;;;;1.67;0.98;;;;;;;;;;5075180;28;20036;-77
2023/07/20 06:47:07;;;;;;;2.97;1.20;;;;;;;;;;5077265;28;20028;-77
2023/07/20 06:49:33;;;;;;;2.33;1.02;;;;;;;;;;5075499;28;20107;-77
2023/07/20 06:51:58;;;;;;;2.85;1.10;;;;;;;;;;5073810;28;20119;-77
2023/07/20 06:54:24;;;;;;;5.13;0.90;;;;;;;;;;5056916;28;20461;-77
2023/07/20 06:56:49;;;;;;;1.35;1.00;;;;;;;;;;5075151;28;20029;-77
2023/07/20 06:59:15;;;;;;;1.63;1.05;;;;;;;;;;5056755;28;20075;-77
2023/07/20 07:01:40;;;;;;;1.60;0.80;;;;;;;;;;5056821;28;20037;-77
2023/07/20 07:04:05;;;;;;;1.27;0.90;;;;;;;;;;5073938;28;20039;-76
2023/07/20 07:06:31;;;;;;;1.60;0.80;;;;;;;;;;5057534;28;20476;-76
2023/07/20 07:08:56;;;;;;;1.20;0.75;;;;;;;;;;5057137;28;20092;-76
2023/07/20 07:11:23;;;;;;;1.83;0.80;;;;;;;;;;5075197;28;20078;-77
2023/07/20 07:13:50;;;;;;;1.40;0.80;;;;;;;;;;5074581;28;20040;-77
2023/07/20 07:16:18;;;;;;;4.40;0.80;;;;;;;;;;5074819;28;20048;-78
2023/07/20 07:18:45;;;;;;;0.77;0.77;;;;;;;;;;5073803;28;20031;-77
2023/07/20 07:21:10;;;;;;;1.35;0.77;;;;;;;;;;5073193;28;20067;-77
2023/07/20 07:23:35;;;;;;;4.20;0.73;;;;;;;;;;5073048;28;20046;-76
2023/07/20 07:26:01;;;;;;;0.82;0.68;;;;;;;;;;5074222;28;20033;-76
2023/07/20 07:28:28;;;;;;;1.88;0.60;;;;;;;;;;5074176;28;20032;-75
2023/07/20 07:30:56;;;;;;;1.35;0.85;;;;;;;;;;5073813;28;20553;-78
2023/07/20 07:33:22;;;;;;;1.70;0.80;;;;;;;;;;5073212;28;20031;-76
2023/07/20 07:35:47;;;;;;;1.58;0.80;;;;;;;;;;5074309;28;20029;-76
2023/07/20 07:38:13;;;;;;;1.15;0.70;;;;;;;;;;5074336;28;20134;-76
2023/07/20 07:40:38;;;;;;;1.95;0.85;;;;;;;;;;5073934;28;20103;-76
2023/07/20 07:43:03;;;;;;;1.08;0.63;;;;;;;;;;5074245;28;20032;-76
2023/07/20 07:45:29;;;;;;;1.70;0.60;;;;;;;;;;5073932;28;20029;-76
2023/07/20 07:47:54;;;;;;;13.13;0.98;;;;;;;;;;5073889;28;20028;-76
2023/07/20 07:50:20;;;;;;;2.20;0.60;;;;;;;;;;5073834;28;20040;-79
2023/07/20 07:52:46;;;;;;;1.40;0.65;;;;;;;;;;5072530;28;20036;-76
2023/07/20 07:55:11;;;;;;;0.85;0.45;;;;;;;;;;5073665;28;20028;-76
2023/07/20 07:57:37;;;;;;;0.98;0.45;;;;;;;;;;5073988;28;20058;-76
2023/07/20 08:00:04;;;;;;;1.52;0.50;;;;;;;;;;5073355;28;20052;-76
2023/07/20 08:02:29;;;;;;;0.75;0.50;;;;;;;;;;5073623;28;20150;-76
2023/07/20 08:04:54;;;;;;;0.68;0.57;;;;;;;;;;5074554;28;20434;-77
2023/07/20 08:07:20;;;;;;;2.60;0.70;;;;;;;;;;5072741;28;20037;-76
2023/07/20 08:09:46;;;;;;;0.60;0.60;;;;;;;;;;5070486;28;20499;-76
2023/07/20 08:12:11;;;;;;;2.53;0.90;;;;;;;;;;5072707;28;20475;-76
2023/07/20 08:14:36;;;;;;;1.95;0.68;;;;;;;;;;5071396;28;20233;-78
2023/07/20 08:17:02;;;;;;;1.27;0.75;;;;;;;;;;5071455;28;20312;-75
2023/07/20 08:19:27;;;;;;;1.10;0.52;;;;;;;;;;5072520;28;20037;-75
2023/07/20 08:21:52;;;;;;;1.17;0.60;;;;;;;;;;5072516;28;20040;-76
2023/07/20 08:24:18;;;;;;;0.70;0.70;;;;;;;;;;5072464;28;20040;-76
2023/07/20 08:26:43;;;;;;;2.00;0.70;;;;;;;;;;5072511;28;20044;-76
2023/07/20 08:29:09;;;;;;;2.70;0.88;;;;;;;;;;5072508;28;20026;-76
2023/07/20 08:31:34;;;;;;;2.25;0.80;;;;;;;;;;5071349;28;20020;-75
2023/07/20 08:33:59;;;;;;;8.68;0.85;;;;;;;;;;5072618;28;20406;-76
2023/07/20 08:36:26;;;;;;;1.02;0.70;;;;;;;;;;5072404;28;20025;-77
2023/07/20 08:38:51;;;;;;;6.90;0.60;;;;;;;;;;5071321;28;20059;-78
2023/07/20 08:41:17;;;;;;;0.50;0.50;;;;;;;;;;5072344;28;20028;-77
2023/07/20 08:43:43;;;;;;;3.47;0.80;;;;;;;;;;5071444;28;20029;-78
2023/07/20 08:46:10;;;;;;;1.88;0.57;;;;;;;;;;5071436;28;20110;-77
2023/07/20 08:48:36;;;;;;;2.60;0.80;;;;;;;;;;5071378;28;20032;-77
2023/07/20 08:51:04;;;;;;;1.73;0.77;;;;;;;;;;5071501;28;20033;-77
2023/07/20 08:53:30;;;;;;;1.77;1.08;;;;;;;;;;5071256;28;20648;-77
2023/07/20 08:55:55;;;;;;;2.10;0.70;;;;;;;;;;5054294;28;20035;-77
2023/07/20 08:58:20;;;;;;;4.65;0.80;;;;;;;;;;5072470;28;20024;-77
2023/07/20 09:00:46;;;;;;;1.02;0.50;;;;;;;;;;5054352;28;20063;-77
2023/07/20 09:03:12;;;;;;;1.23;0.70;;;;;;;;;;5072433;28;20541;-78
2023/07/20 09:05:39;;;;;;;2.55;1.00;;;;;;;;;;5071202;28;20036;-78
2023/07/20 09:08:05;;;;;;;0.60;0.60;;;;;;;;;;5071483;28;20032;-78
2023/07/20 09:10:31;;;;;;;2.13;0.50;;;;;;;;;;5072269;28;20461;-78
2023/07/20 09:12:56;;;;;;;4.30;0.82;;;;;;;;;;5071321;28;20032;-78
2023/07/20 09:15:22;;;;;;;3.10;1.20;;;;;;;;;;5072299;28;20035;-77
2023/07/20 09:17:49;;;;;;;5.80;0.60;;;;;;;;;;5071114;28;20031;-77
2023/07/20 09:20:16;;;;;;;0.88;0.45;;;;;;;;;;5071051;28;20040;-78
2023/07/20 09:22:42;;;;;;;0.85;0.40;;;;;;;;;;5054418;28;20036;-78
2023/07/20 09:25:15;;;;;;;0.40;0.40;;;;;;;;;;5072158;28;20391;-77
2023/07/20 09:27:42;;;;;;;2.30;0.50;;;;;;;;;;5071055;28;20104;-78
2023/07/20 09:30:09;;;;;;;0.88;0.50;;;;;;;;;;5070951;28;20035;-77
2023/07/20 09:32:47;;;;;;;1.75;0.57;;;;;;;;;;5054322;28;20155;-77
2023/07/20 09:35:14;;;;;;;1.52;0.50;;;;;;;;;;5070809;28;20039;-78
2023/07/20 09:37:41;;;;;;;1.17;0.55;;;;;;;;;;5072082;28;20090;-77
2023/07/20 09:40:09;;;;;;;2.03;0.60;;;;;;;;;;5070626;28;20033;-77
2023/07/20 09:42:35;;;;;;;1.77;0.60;;;;;;;;;;5054315;28;20102;-77
2023/07/20 09:45:00;;;;;;;0.75;0.50;;;;;;;;;;5071099;28;20056;-78
2023/07/20 09:47:26;;;;;;;0.68;0.50;;;;;;;;;;5072082;28;20299;-78
2023/07/20 09:49:59;;;;;;;1.23;0.47;;;;;;;;;;5070750;28;20036;-78
2023/07/20 09:52:25;;;;;;;0.40;0.40;;;;;;;;;;5072056;28;20526;-77
2023/07/20 09:54:51;;;;;;;3.45;0.65;;;;;;;;;;5075563;28;20020;-77
2023/07/20 09:57:17;;;;;;;1.55;0.73;;;;;;;;;;5074947;28;20040;-77
2023/07/20 09:59:42;;;;;;;1.50;0.75;;;;;;;;;;5074086;28;20139;-78
2023/07/20 10:02:15;;;;;;;1.70;0.60;;;;;;;;;;5075421;28;20029;-77
2023/07/20 10:04:41;;;;;;;3.60;0.90;;;;;;;;;;5070893;28;20052;-78
2023/07/20 10:07:11;;;;;;;2.88;0.60;;;;;;;;;;5057331;28;20404;-77
2023/07/20 10:09:39;;;;;;;1.05;0.50;;;;;;;;;;5074088;28;20078;-77
2023/07/20 10:12:05;;;;;;;1.15;0.40;;;;;;;;;;5073891;28;20108;-77
2023/07/20 10:14:33;;;;;;;2.97;0.40;;;;;;;;;;5073913;28;20039;-77
2023/07/20 10:17:01;;;;;;;2.95;0.68;;;;;;;;;;5073855;28;20028;-78
2023/07/20 10:19:47;;;;;;;5.40;0.60;;;;;;;;;;5073588;28;20024;-77
2023/07/20 10:22:22;;;;;;;0.90;0.45;;;;;;;;;;5073899;28;20070;-77
2023/07/20 10:24:48;;;;;;;0.40;0.40;;;;;;;;;;5074454;28;20012;-77
2023/07/20 10:27:14;;;;;;;0.80;0.80;;;;;;;;;;5075779;28;20039;-78
2023/07/20 10:29:40;;;;;;;0.45;0.45;;;;;;;;;;5075338;28;20033;-76
2023/07/20 10:32:07;;;;;;;6.78;1.08;;;;;;;;;;5074300;28;20372;-78
2023/07/20 10:34:32;;;;;;;2.15;0.80;;;;;;;;;;5092329;28;20418;-80
2023/07/20 10:36:59;;;;;;;4.45;0.98;;;;;;;;;;5094535;28;20059;-77
2023/07/20 10:39:30;;;;;;;2.05;0.50;;;;;;;;;;5074744;28;20506;-78
2023/07/20 10:42:08;;;;;;;4.50;0.90;;;;;;;;;;5074293;28;20428;-78
2023/07/20 10:44:34;;;;;;;8.75;0.95;;;;;;;;;;5075457;28;20479;-78
2023/07/20 10:47:07;;;;;;;2.15;1.17;;;;;;;;;;5091099;28;20119;-78
2023/07/20 10:49:36;;;;;;;2.08;0.88;;;;;;;;;;5074459;28;20035;-78
2023/07/20 10:52:06;;;;;;;2.03;0.95;;;;;;;;;;5074291;28;20060;-77
2023/07/20 10:54:31;;;;;;;19.35;8.98;;;;;;;;;;5077381;28;20020;-78
2023/07/20 10:56:58;;;;;;;41.88;22.85;;;;;;;;;;5075447;28;20364;-78
2023/07/20 10:59:23;;;;;;;46.20;26.52;;;;;;;;;;5075308;28;20453;-78
2023/07/20 11:01:49;;;;;;;54.22;35.05;;;;;;;;;;5075415;28;20104;-79
2023/07/20 11:04:16;;;;;;;60.70;37.92;;;;;;;;;;5074067;28;20029;-78
2023/07/20 11:06:45;;;;;;;49.03;31.52;;;;;;;;;;5073813;28;20498;-77
2023/07/20 11:09:15;;;;;;;47.67;29.35;;;;;;;;;;5073908;28;20036;-77
2023/07/20 11:11:47;;;;;;;42.10;26.38;;;;;;;;;;5073876;28;20550;-77
2023/07/20 11:14:23;;;;;;;37.13;23.95;;;;;;;;;;5073642;28;20028;-76
2023/07/20 11:16:50;;;;;;;38.80;20.75;;;;;;;;;;5074809;28;20029;-77
2023/07/20 11:19:22;;;;;;;25.10;17.60;;;;;;;;;;5074505;28;20075;-78
2023/07/20 11:21:51;;;;;;;24.58;16.15;;;;;;;;;;5070382;28;20044;-77
2023/07/20 11:24:16;;;;;;;20.60;14.07;;;;;;;;;;5074233;28;20024;-78
2023/07/20 11:26:42;;;;;;;18.63;13.15;;;;;;;;;;5089998;28;20043;-78
2023/07/20 11:29:08;;;;;;;20.85;10.98;;;;;;;;;;5076307;28;20493;-77
2023/07/20 11:31:40;;;;;;;17.00;10.43;;;;;;;;;;5094284;28;20024;-77
2023/07/20 11:34:10;;;;;;;15.02;9.43;;;;;;;;;;5093280;28;20031;-79
2023/07/20 11:36:35;;;;;;;16.02;10.02;;;;;;;;;;5094062;28;20031;-79
2023/07/20 11:39:01;;;;;;;11.85;7.95;;;;;;;;;;5094478;28;20117;-79
2023/07/20 11:41:29;;;;;;;12.48;8.02;;;;;;;;;;5092982;28;20111;-78
2023/07/20 11:43:55;;;;;;;10.93;7.07;;;;;;;;;;5093127;28;20084;-77
2023/07/20 11:46:20;;;;;;;14.55;6.57;;;;;;;;;;5093999;28;20111;-78
2023/07/20 11:48:45;;;;;;;8.82;5.85;;;;;;;;;;5093269;28;20043;-77
2023/07/20 11:51:17;;;;;;;9.55;4.78;;;;;;;;;;5075871;28;20036;-78
2023/07/20 11:53:44;;;;;;;9.55;4.82;;;;;;;;;;5083338;28;20040;-78
2023/07/20 11:56:10;;;;;;;7.93;5.10;;;;;;;;;;5072656;28;20024;-80
2023/07/20 11:58:36;;;;;;;5.93;3.85;;;;;;;;;;5072619;28;20029;-78
2023/07/20 12:01:02;;;;;;;7.32;4.00;;;;;;;;;;5074467;28;20086;-79
2023/07/20 12:03:27;;;;;;;4.97;3.25;;;;;;;;;;5074150;28;20060;-78
2023/07/20 12:05:53;;;;;;;4.93;3.30;;;;;;;;;;5074026;28;20052;-78
2023/07/20 12:08:19;;;;;;;6.28;3.15;;;;;;;;;;5056154;28;20036;-78
2023/07/20 12:10:44;;;;;;;4.50;3.05;;;;;;;;;;5072562;28;20494;-78
2023/07/20 12:13:13;;;;;;;6.05;2.60;;;;;;;;;;5074122;28;20471;-78
2023/07/20 12:15:39;;;;;;;5.20;3.20;;;;;;;;;;5075127;28;20029;-78
2023/07/20 12:18:05;;;;;;;5.75;3.25;;;;;;;;;;5072850;28;20028;-78
2023/07/20 12:20:34;;;;;;;3.72;2.47;;;;;;;;;;5074224;28;20517;-78
2023/07/20 12:23:06;;;;;;;9.43;2.70;;;;;;;;;;5073736;28;20036;-79
2023/07/20 12:25:42;;;;;;;4.90;2.58;;;;;;;;;;5070535;28;20554;-77
2023/07/20 12:28:15;;;;;;;6.47;2.70;;;;;;;;;;5075218;28;20178;-78
2023/07/20 12:30:42;;;;;;;7.38;2.60;;;;;;;;;;5089275;28;20024;-77
2023/07/20 12:33:07;;;;;;;4.85;2.47;;;;;;;;;;5072235;28;20032;-77
2023/07/20 12:35:34;;;;;;;3.65;2.22;;;;;;;;;;5071988;28;20115;-77
2023/07/20 12:38:00;;;;;;;3.30;2.20;;;;;;;;;;5072132;28;20429;-77
2023/07/20 12:40:25;;;;;;;3.10;2.30;;;;;;;;;;5071816;28;20020;-78
2023/07/20 12:42:51;;;;;;;2.90;2.03;;;;;;;;;;5072198;28;20391;-79
2023/07/20 12:45:16;;;;;;;5.63;2.20;;;;;;;;;;5072073;28;20031;-77
2023/07/20 12:47:43;;;;;;;4.03;2.13;;;;;;;;;;5073225;28;20040;-76
2023/07/20 12:50:09;;;;;;;5.25;1.98;;;;;;;;;;5071829;28;20044;-78
2023/07/20 12:52:41;;;;;;;3.25;2.05;;;;;;;;;;5055348;28;20032;-79
2023/07/20 12:55:08;;;;;;;2.45;1.70;;;;;;;;;;5073033;28;20025;-77
2023/07/20 12:57:37;;;;;;;2.83;1.60;;;;;;;;;;5074132;28;20115;-77
2023/07/20 13:00:04;;;;;;;2.33;1.50;;;;;;;;;;5072620;28;20048;-77
2023/07/20 13:02:31;;;;;;;1.63;1.52;;;;;;;;;;5055340;28;20040;-77
2023/07/20 13:04:57;;;;;;;1.92;1.67;;;;;;;;;;5071934;28;20024;-77
2023/07/20 13:07:37;;;;;;;1.83;1.40;;;;;;;;;;5071614;28;20035;-78
2023/07/20 13:10:04;;;;;;;1.65;1.45;;;;;;;;;;5071863;28;20438;-77
2023/07/20 13:12:30;;;;;;;1.80;1.40;;;;;;;;;;5071727;28;20187;-77
2023/07/20 13:15:00;;;;;;;3.10;1.40;;;;;;;;;;5055260;28;20032;-77
2023/07/20 13:17:25;;;;;;;3.35;1.30;;;;;;;;;;5073347;28;20034;-79
2023/07/20 13:19:51;;;;;;;2.78;1.20;;;;;;;;;;5074662;28;20123;-77
2023/07/20 13:22:16;;;;;;;1.83;1.15;;;;;;;;;;5051763;28;20040;-77
2023/07/20 13:24:45;;;;;;;1.25;0.98;;;;;;;;;;5072892;28;20025;-77
2023/07/20 13:27:10;;;;;;;1.35;1.10;;;;;;;;;;5054840;28;20048;-77
2023/07/20 13:29:36;;;;;;;1.73;1.15;;;;;;;;;;5076386;28;20063;-77
2023/07/20 13:32:02;;;;;;;1.02;1.00;;;;;;;;;;5076594;28;20029;-77
2023/07/20 13:34:28;;;;;;;1.77;1.00;;;;;;;;;;5076520;28;20067;-76
2023/07/20 13:36:53;;;;;;;1.63;0.85;;;;;;;;;;5076522;28;20052;-76
2023/07/20 13:39:19;;;;;;;1.88;1.00;;;;;;;;;;5076066;28;20033;-79
2023/07/20 13:41:44;;;;;;;2.00;1.00;;;;;;;;;;5076464;28;20028;-78
2023/07/20 13:44:10;;;;;;;1.48;1.10;;;;;;;;;;5075166;28;20479;-79
2023/07/20 13:46:35;;;;;;;1.75;1.20;;;;;;;;;;5075082;28;20056;-77
2023/07/20 13:49:01;;;;;;;1.08;0.98;;;;;;;;;;5076039;28;20029;-77
2023/07/20 13:51:26;;;;;;;1.20;1.10;;;;;;;;;;5077898;28;20479;-80
2023/07/20 13:53:51;;;;;;;2.05;1.13;;;;;;;;;;5076184;28;20144;-79
2023/07/20 13:56:17;;;;;;;2.53;1.00;;;;;;;;;;5074810;28;20032;-79
2023/07/20 13:58:42;;;;;;;1.20;1.10;;;;;;;;;;5075862;28;20039;-77
2023/07/20 14:01:07;;;;;;;2.65;1.10;;;;;;;;;;5075878;28;20495;-79
2023/07/20 14:03:33;;;;;;;1.40;1.10;;;;;;;;;;5074935;28;20036;-77
2023/07/20 14:05:58;;;;;;;1.10;1.00;;;;;;;;;;5075987;28;20032;-80
2023/07/20 14:08:24;;;;;;;0.90;0.90;;;;;;;;;;5057799;28;20082;-79
2023/07/20 14:10:49;;;;;;;0.95;0.80;;;;;;;;;;5074927;28;20028;-80
2023/07/20 14:13:14;;;;;;;0.70;0.70;;;;;;;;;;5058325;28;20059;-79
2023/07/20 14:15:40;;;;;;;2.08;0.80;;;;;;;;;;5058160;28;20040;-80
2023/07/20 14:18:05;;;;;;;10.23;1.52;;;;;;;;;;5075975;28;20124;-77
2023/07/20 14:20:31;;;;;;;3.55;1.48;;;;;;;;;;5040472;28;20024;-78
2023/07/20 14:22:57;;;;;;;5.53;1.42;;;;;;;;;;5074380;28;20537;-78
2023/07/20 14:25:22;;;;;;;5.30;1.75;;;;;;;;;;5076012;28;20028;-78
2023/07/20 14:27:47;;;;;;;4.97;2.00;;;;;;;;;;5074311;28;20055;-77
2023/07/20 14:30:13;;;;;;;4.97;1.40;;;;;;;;;;5057557;28;20555;-77
2023/07/20 14:32:38;;;;;;;4.50;1.50;;;;;;;;;;5058218;28;20391;-77
2023/07/20 14:35:04;;;;;;;3.58;1.98;;;;;;;;;;5074233;28;20078;-77
2023/07/20 14:37:30;;;;;;;2.10;1.23;;;;;;;;;;5074403;28;20123;-78